sensor_id;sensor_type;location;lat;lon;timestamp;P1;durP1;ratioP1;P2;durP2;ratioP2
55222;SDS011;41090;48.632;12.428;2023-05-19T00:00:26;7.13;;;5.07;;
55222;SDS011;41090;48.632;12.428;2023-05-19T00:02:53;9.07;;;4.60;;
55222;SDS011;41090;48.632;12.428;2023-05-19T00:05:20;8.67;;;4.80;;
55222;SDS011;41090;48.632;12.428;2023-05-19T00:07:47;6.67;;;4.70;;
55222;SDS011;41090;48.632;12.428;2023-05-19T00:10:17;7.80;;;4.47;;
55222;SDS011;41090;48.632;12.428;2023-05-19T00:12:42;6.10;;;4.90;;
55222;SDS011;41090;48.632;12.428;2023-05-19T00:15:08;7.80;;;5.13;;
55222;SDS011;41090;48.632;12.428;2023-05-19T00:17:34;8.17;;;5.00;;
55222;SDS011;41090;48.632;12.428;2023-05-19T00:20:00;7.60;;;4.70;;
55222;SDS011;41090;48.632;12.428;2023-05-19T00:22:32;5.47;;;4.40;;
55222;SDS011;41090;48.632;12.428;2023-05-19T00:25:01;5.50;;;4.90;;
55222;SDS011;41090;48.632;12.428;2023-05-19T00:27:26;6.07;;;4.83;;
55222;SDS011;41090;48.632;12.428;2023-05-19T00:29:51;5.27;;;4.40;;
55222;SDS011;41090;48.632;12.428;2023-05-19T00:32:17;6.83;;;4.83;;
55222;SDS011;41090;48.632;12.428;2023-05-19T00:34:42;6.13;;;4.70;;
55222;SDS011;41090;48.632;12.428;2023-05-19T00:37:07;5.20;;;4.20;;
55222;SDS011;41090;48.632;12.428;2023-05-19T00:39:34;6.27;;;4.70;;
55222;SDS011;41090;48.632;12.428;2023-05-19T00:42:07;5.67;;;4.73;;
55222;SDS011;41090;48.632;12.428;2023-05-19T00:44:36;7.27;;;4.43;;
55222;SDS011;41090;48.632;12.428;2023-05-19T00:47:06;7.77;;;4.83;;
55222;SDS011;41090;48.632;12.428;2023-05-19T00:49:34;6.23;;;4.37;;
55222;SDS011;41090;48.632;12.428;2023-05-19T00:52:01;6.80;;;4.37;;
55222;SDS011;41090;48.632;12.428;2023-05-19T00:54:27;8.37;;;5.07;;
55222;SDS011;41090;48.632;12.428;2023-05-19T00:56:56;5.67;;;4.43;;
55222;SDS011;41090;48.632;12.428;2023-05-19T00:59:23;7.77;;;5.07;;
55222;SDS011;41090;48.632;12.428;2023-05-19T01:01:48;8.73;;;5.23;;
55222;SDS011;41090;48.632;12.428;2023-05-19T01:04:17;6.67;;;5.03;;
55222;SDS011;41090;48.632;12.428;2023-05-19T01:06:47;6.90;;;4.60;;
55222;SDS011;41090;48.632;12.428;2023-05-19T01:09:21;9.37;;;5.13;;
55222;SDS011;41090;48.632;12.428;2023-05-19T01:11:49;7.13;;;5.40;;
55222;SDS011;41090;48.632;12.428;2023-05-19T01:14:14;8.93;;;5.47;;
55222;SDS011;41090;48.632;12.428;2023-05-19T01:16:53;8.63;;;5.40;;
55222;SDS011;41090;48.632;12.428;2023-05-19T01:32:25;8.40;;;5.63;;
55222;SDS011;41090;48.632;12.428;2023-05-19T01:34:52;5.93;;;5.13;;
55222;SDS011;41090;48.632;12.428;2023-05-19T01:37:21;9.17;;;6.13;;
55222;SDS011;41090;48.632;12.428;2023-05-19T01:39:48;9.33;;;6.27;;
55222;SDS011;41090;48.632;12.428;2023-05-19T01:42:15;8.87;;;6.50;;
55222;SDS011;41090;48.632;12.428;2023-05-19T01:44:41;7.57;;;6.40;;
55222;SDS011;41090;48.632;12.428;2023-05-19T01:47:09;9.13;;;6.60;;
55222;SDS011;41090;48.632;12.428;2023-05-19T01:49:34;9.43;;;6.53;;
55222;SDS011;41090;48.632;12.428;2023-05-19T01:52:01;9.00;;;6.67;;
55222;SDS011;41090;48.632;12.428;2023-05-19T01:54:29;8.50;;;6.03;;
55222;SDS011;41090;48.632;12.428;2023-05-19T01:59:36;11.17;;;7.20;;
55222;SDS011;41090;48.632;12.428;2023-05-19T02:02:12;10.67;;;7.00;;
55222;SDS011;41090;48.632;12.428;2023-05-19T02:04:46;7.83;;;6.70;;
55222;SDS011;41090;48.632;12.428;2023-05-19T02:07:23;8.77;;;6.40;;
55222;SDS011;41090;48.632;12.428;2023-05-19T02:09:52;13.40;;;7.17;;
55222;SDS011;41090;48.632;12.428;2023-05-19T02:12:27;9.33;;;7.57;;
55222;SDS011;41090;48.632;12.428;2023-05-19T02:17:21;10.93;;;7.40;;
55222;SDS011;41090;48.632;12.428;2023-05-19T02:19:47;8.80;;;7.27;;
55222;SDS011;41090;48.632;12.428;2023-05-19T02:22:12;7.83;;;6.97;;
55222;SDS011;41090;48.632;12.428;2023-05-19T02:24:37;8.07;;;7.27;;
55222;SDS011;41090;48.632;12.428;2023-05-19T02:27:03;10.53;;;7.00;;
55222;SDS011;41090;48.632;12.428;2023-05-19T02:29:29;9.87;;;6.90;;
55222;SDS011;41090;48.632;12.428;2023-05-19T02:31:54;9.47;;;7.23;;
55222;SDS011;41090;48.632;12.428;2023-05-19T02:34:20;9.47;;;7.47;;
55222;SDS011;41090;48.632;12.428;2023-05-19T02:36:46;9.80;;;7.37;;
55222;SDS011;41090;48.632;12.428;2023-05-19T02:39:15;9.53;;;7.50;;
55222;SDS011;41090;48.632;12.428;2023-05-19T02:41:41;7.87;;;6.50;;
55222;SDS011;41090;48.632;12.428;2023-05-19T02:44:07;6.80;;;5.67;;
55222;SDS011;41090;48.632;12.428;2023-05-19T02:46:39;8.63;;;6.50;;
55222;SDS011;41090;48.632;12.428;2023-05-19T02:49:06;8.40;;;7.27;;
55222;SDS011;41090;48.632;12.428;2023-05-19T02:51:34;11.13;;;6.80;;
55222;SDS011;41090;48.632;12.428;2023-05-19T02:54:07;12.90;;;7.60;;
55222;SDS011;41090;48.632;12.428;2023-05-19T02:56:33;8.00;;;7.20;;
55222;SDS011;41090;48.632;12.428;2023-05-19T02:59:01;7.37;;;6.20;;
55222;SDS011;41090;48.632;12.428;2023-05-19T03:01:30;8.70;;;7.47;;
55222;SDS011;41090;48.632;12.428;2023-05-19T03:04:02;8.57;;;7.13;;
55222;SDS011;41090;48.632;12.428;2023-05-19T03:06:27;8.87;;;6.50;;
55222;SDS011;41090;48.632;12.428;2023-05-19T03:08:53;7.60;;;6.80;;
55222;SDS011;41090;48.632;12.428;2023-05-19T03:11:19;9.23;;;7.03;;
55222;SDS011;41090;48.632;12.428;2023-05-19T03:13:44;10.97;;;7.27;;
55222;SDS011;41090;48.632;12.428;2023-05-19T03:16:13;7.70;;;6.97;;
55222;SDS011;41090;48.632;12.428;2023-05-19T03:18:41;10.27;;;7.93;;
55222;SDS011;41090;48.632;12.428;2023-05-19T03:21:07;11.27;;;7.60;;
55222;SDS011;41090;48.632;12.428;2023-05-19T03:23:33;8.80;;;7.27;;
55222;SDS011;41090;48.632;12.428;2023-05-19T03:26:02;8.03;;;7.23;;
55222;SDS011;41090;48.632;12.428;2023-05-19T03:28:28;10.33;;;7.47;;
55222;SDS011;41090;48.632;12.428;2023-05-19T03:30:53;9.97;;;7.27;;
55222;SDS011;41090;48.632;12.428;2023-05-19T03:33:18;8.47;;;7.50;;
55222;SDS011;41090;48.632;12.428;2023-05-19T03:35:44;8.37;;;6.67;;
55222;SDS011;41090;48.632;12.428;2023-05-19T03:38:10;8.60;;;6.97;;
55222;SDS011;41090;48.632;12.428;2023-05-19T03:40:37;10.13;;;7.00;;
55222;SDS011;41090;48.632;12.428;2023-05-19T03:43:06;9.13;;;6.60;;
55222;SDS011;41090;48.632;12.428;2023-05-19T03:45:33;7.50;;;6.47;;
55222;SDS011;41090;48.632;12.428;2023-05-19T03:48:04;8.07;;;6.70;;
55222;SDS011;41090;48.632;12.428;2023-05-19T03:50:30;8.57;;;6.47;;
55222;SDS011;41090;48.632;12.428;2023-05-19T03:52:59;9.83;;;6.70;;
55222;SDS011;41090;48.632;12.428;2023-05-19T03:55:25;8.23;;;6.87;;
55222;SDS011;41090;48.632;12.428;2023-05-19T03:57:51;9.07;;;6.90;;
55222;SDS011;41090;48.632;12.428;2023-05-19T04:00:20;9.37;;;6.70;;
55222;SDS011;41090;48.632;12.428;2023-05-19T04:02:45;8.53;;;6.57;;
55222;SDS011;41090;48.632;12.428;2023-05-19T04:05:11;9.50;;;6.63;;
55222;SDS011;41090;48.632;12.428;2023-05-19T04:07:38;7.80;;;7.00;;
55222;SDS011;41090;48.632;12.428;2023-05-19T04:10:03;9.60;;;7.20;;
55222;SDS011;41090;48.632;12.428;2023-05-19T04:12:30;10.70;;;6.93;;
55222;SDS011;41090;48.632;12.428;2023-05-19T04:15:01;11.27;;;7.07;;
55222;SDS011;41090;48.632;12.428;2023-05-19T04:17:26;9.83;;;6.70;;
55222;SDS011;41090;48.632;12.428;2023-05-19T04:19:52;8.10;;;6.10;;
55222;SDS011;41090;48.632;12.428;2023-05-19T04:22:17;13.77;;;6.93;;
55222;SDS011;41090;48.632;12.428;2023-05-19T04:24:42;8.63;;;6.50;;
55222;SDS011;41090;48.632;12.428;2023-05-19T04:27:08;9.60;;;6.30;;
55222;SDS011;41090;48.632;12.428;2023-05-19T04:29:36;11.53;;;6.87;;
55222;SDS011;41090;48.632;12.428;2023-05-19T04:32:04;7.70;;;6.57;;
55222;SDS011;41090;48.632;12.428;2023-05-19T04:34:33;11.40;;;6.60;;
55222;SDS011;41090;48.632;12.428;2023-05-19T04:37:06;11.80;;;7.07;;
55222;SDS011;41090;48.632;12.428;2023-05-19T04:39:32;10.40;;;6.20;;
55222;SDS011;41090;48.632;12.428;2023-05-19T04:42:03;8.03;;;6.80;;
55222;SDS011;41090;48.632;12.428;2023-05-19T04:44:29;10.20;;;7.23;;
55222;SDS011;41090;48.632;12.428;2023-05-19T04:46:58;11.53;;;8.40;;
55222;SDS011;41090;48.632;12.428;2023-05-19T04:49:24;12.77;;;8.87;;
55222;SDS011;41090;48.632;12.428;2023-05-19T04:51:49;11.67;;;7.47;;
55222;SDS011;41090;48.632;12.428;2023-05-19T04:54:16;10.83;;;7.20;;
55222;SDS011;41090;48.632;12.428;2023-05-19T04:56:41;8.40;;;6.20;;
55222;SDS011;41090;48.632;12.428;2023-05-19T04:59:08;9.87;;;7.03;;
55222;SDS011;41090;48.632;12.428;2023-05-19T05:01:37;7.80;;;6.10;;
55222;SDS011;41090;48.632;12.428;2023-05-19T05:04:05;8.27;;;6.33;;
55222;SDS011;41090;48.632;12.428;2023-05-19T05:06:31;9.30;;;6.30;;
55222;SDS011;41090;48.632;12.428;2023-05-19T05:09:10;14.20;;;8.70;;
55222;SDS011;41090;48.632;12.428;2023-05-19T05:11:36;13.63;;;7.73;;
55222;SDS011;41090;48.632;12.428;2023-05-19T05:14:02;14.67;;;9.33;;
55222;SDS011;41090;48.632;12.428;2023-05-19T05:16:28;14.37;;;8.00;;
55222;SDS011;41090;48.632;12.428;2023-05-19T05:18:54;13.60;;;6.93;;
55222;SDS011;41090;48.632;12.428;2023-05-19T05:21:19;10.17;;;6.60;;
55222;SDS011;41090;48.632;12.428;2023-05-19T05:23:45;11.50;;;6.63;;
55222;SDS011;41090;48.632;12.428;2023-05-19T05:26:15;8.87;;;6.60;;
55222;SDS011;41090;48.632;12.428;2023-05-19T05:28:41;7.73;;;5.93;;
55222;SDS011;41090;48.632;12.428;2023-05-19T05:31:08;8.37;;;5.87;;
55222;SDS011;41090;48.632;12.428;2023-05-19T05:33:34;7.13;;;5.43;;
55222;SDS011;41090;48.632;12.428;2023-05-19T05:36:06;11.23;;;5.77;;
55222;SDS011;41090;48.632;12.428;2023-05-19T05:38:33;11.47;;;6.33;;
55222;SDS011;41090;48.632;12.428;2023-05-19T05:41:04;8.90;;;6.00;;
55222;SDS011;41090;48.632;12.428;2023-05-19T05:43:29;12.30;;;6.27;;
55222;SDS011;41090;48.632;12.428;2023-05-19T05:45:56;10.77;;;5.83;;
55222;SDS011;41090;48.632;12.428;2023-05-19T05:48:24;8.03;;;5.57;;
55222;SDS011;41090;48.632;12.428;2023-05-19T05:50:49;10.63;;;5.77;;
55222;SDS011;41090;48.632;12.428;2023-05-19T05:53:18;8.03;;;6.23;;
55222;SDS011;41090;48.632;12.428;2023-05-19T05:55:47;8.50;;;5.70;;
55222;SDS011;41090;48.632;12.428;2023-05-19T05:58:17;8.50;;;6.27;;
55222;SDS011;41090;48.632;12.428;2023-05-19T06:00:43;7.13;;;5.60;;
55222;SDS011;41090;48.632;12.428;2023-05-19T06:03:22;9.37;;;5.73;;
55222;SDS011;41090;48.632;12.428;2023-05-19T06:05:48;8.73;;;5.43;;
55222;SDS011;41090;48.632;12.428;2023-05-19T06:08:13;11.87;;;5.80;;
55222;SDS011;41090;48.632;12.428;2023-05-19T06:10:40;11.40;;;5.80;;
55222;SDS011;41090;48.632;12.428;2023-05-19T06:13:13;8.03;;;5.70;;
55222;SDS011;41090;48.632;12.428;2023-05-19T06:15:43;9.30;;;5.77;;
55222;SDS011;41090;48.632;12.428;2023-05-19T06:18:14;6.97;;;5.63;;
55222;SDS011;41090;48.632;12.428;2023-05-19T06:20:39;7.80;;;5.17;;
55222;SDS011;41090;48.632;12.428;2023-05-19T06:23:04;8.00;;;5.50;;
55222;SDS011;41090;48.632;12.428;2023-05-19T06:25:32;7.37;;;5.13;;
55222;SDS011;41090;48.632;12.428;2023-05-19T06:28:03;6.93;;;4.77;;
55222;SDS011;41090;48.632;12.428;2023-05-19T06:30:29;7.37;;;5.20;;
55222;SDS011;41090;48.632;12.428;2023-05-19T06:35:33;9.57;;;5.40;;
55222;SDS011;41090;48.632;12.428;2023-05-19T06:38:08;11.17;;;6.07;;
55222;SDS011;41090;48.632;12.428;2023-05-19T06:40:35;11.07;;;5.47;;
55222;SDS011;41090;48.632;12.428;2023-05-19T06:43:11;6.90;;;5.23;;
55222;SDS011;41090;48.632;12.428;2023-05-19T06:45:39;5.77;;;4.80;;
55222;SDS011;41090;48.632;12.428;2023-05-19T06:48:04;9.40;;;5.27;;
55222;SDS011;41090;48.632;12.428;2023-05-19T06:50:30;8.07;;;5.70;;
55222;SDS011;41090;48.632;12.428;2023-05-19T06:53:02;8.13;;;4.93;;
55222;SDS011;41090;48.632;12.428;2023-05-19T06:55:27;5.57;;;4.57;;
55222;SDS011;41090;48.632;12.428;2023-05-19T06:57:53;7.03;;;4.60;;
55222;SDS011;41090;48.632;12.428;2023-05-19T07:00:18;5.87;;;4.70;;
55222;SDS011;41090;48.632;12.428;2023-05-19T07:02:45;8.03;;;4.93;;
55222;SDS011;41090;48.632;12.428;2023-05-19T07:05:11;7.00;;;4.60;;
55222;SDS011;41090;48.632;12.428;2023-05-19T07:07:37;9.80;;;4.93;;
55222;SDS011;41090;48.632;12.428;2023-05-19T07:10:04;6.63;;;4.17;;
55222;SDS011;41090;48.632;12.428;2023-05-19T07:12:33;6.63;;;4.40;;
55222;SDS011;41090;48.632;12.428;2023-05-19T07:15:03;6.90;;;3.93;;
55222;SDS011;41090;48.632;12.428;2023-05-19T07:17:28;7.97;;;3.63;;
55222;SDS011;41090;48.632;12.428;2023-05-19T07:19:54;6.00;;;3.88;;
55222;SDS011;41090;48.632;12.428;2023-05-19T07:22:19;5.03;;;3.60;;
55222;SDS011;41090;48.632;12.428;2023-05-19T07:24:45;4.68;;;3.50;;
55222;SDS011;41090;48.632;12.428;2023-05-19T07:27:11;6.53;;;3.42;;
55222;SDS011;41090;48.632;12.428;2023-05-19T07:29:46;5.90;;;3.50;;
55222;SDS011;41090;48.632;12.428;2023-05-19T07:32:12;4.67;;;3.50;;
55222;SDS011;41090;48.632;12.428;2023-05-19T07:34:39;4.70;;;3.47;;
55222;SDS011;41090;48.632;12.428;2023-05-19T07:39:38;4.27;;;2.97;;
55222;SDS011;41090;48.632;12.428;2023-05-19T07:42:04;5.23;;;3.00;;
55222;SDS011;41090;48.632;12.428;2023-05-19T07:44:29;6.07;;;3.13;;
55222;SDS011;41090;48.632;12.428;2023-05-19T07:46:58;4.37;;;3.10;;
55222;SDS011;41090;48.632;12.428;2023-05-19T07:49:25;4.37;;;3.10;;
55222;SDS011;41090;48.632;12.428;2023-05-19T07:51:52;4.77;;;3.00;;
55222;SDS011;41090;48.632;12.428;2023-05-19T07:54:17;5.23;;;3.20;;
55222;SDS011;41090;48.632;12.428;2023-05-19T07:56:43;4.87;;;3.43;;
55222;SDS011;41090;48.632;12.428;2023-05-19T07:59:08;5.57;;;4.00;;
55222;SDS011;41090;48.632;12.428;2023-05-19T08:01:51;4.47;;;3.30;;
55222;SDS011;41090;48.632;12.428;2023-05-19T08:04:17;4.07;;;3.33;;
55222;SDS011;41090;48.632;12.428;2023-05-19T08:06:42;3.90;;;3.23;;
55222;SDS011;41090;48.632;12.428;2023-05-19T08:09:10;4.70;;;3.60;;
55222;SDS011;41090;48.632;12.428;2023-05-19T08:11:36;4.00;;;3.47;;
55222;SDS011;41090;48.632;12.428;2023-05-19T08:16:34;4.20;;;3.17;;
55222;SDS011;41090;48.632;12.428;2023-05-19T08:19:06;3.90;;;3.30;;
55222;SDS011;41090;48.632;12.428;2023-05-19T08:21:32;5.67;;;3.27;;
55222;SDS011;41090;48.632;12.428;2023-05-19T08:24:03;3.97;;;3.00;;
55222;SDS011;41090;48.632;12.428;2023-05-19T08:26:29;3.90;;;3.10;;
55222;SDS011;41090;48.632;12.428;2023-05-19T08:28:54;4.10;;;3.10;;
55222;SDS011;41090;48.632;12.428;2023-05-19T08:31:20;5.70;;;3.37;;
55222;SDS011;41090;48.632;12.428;2023-05-19T08:33:46;3.80;;;2.93;;
55222;SDS011;41090;48.632;12.428;2023-05-19T08:36:13;3.13;;;2.83;;
55222;SDS011;41090;48.632;12.428;2023-05-19T08:38:40;3.27;;;2.70;;
55222;SDS011;41090;48.632;12.428;2023-05-19T08:41:07;3.10;;;2.80;;
55222;SDS011;41090;48.632;12.428;2023-05-19T08:43:33;3.33;;;2.80;;
55222;SDS011;41090;48.632;12.428;2023-05-19T08:46:08;4.77;;;3.40;;
55222;SDS011;41090;48.632;12.428;2023-05-19T08:48:37;3.87;;;3.00;;
55222;SDS011;41090;48.632;12.428;2023-05-19T08:51:13;4.27;;;2.90;;
55222;SDS011;41090;48.632;12.428;2023-05-19T08:53:44;3.33;;;3.00;;
55222;SDS011;41090;48.632;12.428;2023-05-19T08:56:19;3.83;;;2.70;;
55222;SDS011;41090;48.632;12.428;2023-05-19T08:58:48;3.23;;;2.83;;
55222;SDS011;41090;48.632;12.428;2023-05-19T09:01:13;4.00;;;2.90;;
55222;SDS011;41090;48.632;12.428;2023-05-19T09:03:42;3.37;;;2.70;;
55222;SDS011;41090;48.632;12.428;2023-05-19T09:06:13;3.70;;;3.00;;
55222;SDS011;41090;48.632;12.428;2023-05-19T09:08:41;3.30;;;3.00;;
55222;SDS011;41090;48.632;12.428;2023-05-19T09:11:07;3.17;;;2.50;;
55222;SDS011;41090;48.632;12.428;2023-05-19T09:13:35;3.55;;;3.00;;
55222;SDS011;41090;48.632;12.428;2023-05-19T09:16:05;3.00;;;2.70;;
55222;SDS011;41090;48.632;12.428;2023-05-19T09:18:31;3.42;;;2.78;;
55222;SDS011;41090;48.632;12.428;2023-05-19T09:21:06;4.68;;;2.72;;
55222;SDS011;41090;48.632;12.428;2023-05-19T09:23:37;3.83;;;2.90;;
55222;SDS011;41090;48.632;12.428;2023-05-19T09:26:08;3.92;;;2.83;;
55222;SDS011;41090;48.632;12.428;2023-05-19T09:28:43;3.47;;;2.63;;
55222;SDS011;41090;48.632;12.428;2023-05-19T09:31:12;3.22;;;2.67;;
55222;SDS011;41090;48.632;12.428;2023-05-19T09:33:41;3.05;;;2.75;;
55222;SDS011;41090;48.632;12.428;2023-05-19T09:36:07;3.92;;;2.70;;
55222;SDS011;41090;48.632;12.428;2023-05-19T09:41:03;3.00;;;2.55;;
55222;SDS011;41090;48.632;12.428;2023-05-19T09:43:29;4.53;;;2.60;;
55222;SDS011;41090;48.632;12.428;2023-05-19T09:46:03;3.85;;;2.90;;
55222;SDS011;41090;48.632;12.428;2023-05-19T09:48:28;4.13;;;2.70;;
55222;SDS011;41090;48.632;12.428;2023-05-19T09:50:54;3.33;;;2.80;;
55222;SDS011;41090;48.632;12.428;2023-05-19T09:53:20;3.75;;;2.47;;
55222;SDS011;41090;48.632;12.428;2023-05-19T09:55:47;4.65;;;2.97;;
55222;SDS011;41090;48.632;12.428;2023-05-19T09:58:17;4.57;;;2.70;;
55222;SDS011;41090;48.632;12.428;2023-05-19T10:00:43;3.03;;;2.75;;
55222;SDS011;41090;48.632;12.428;2023-05-19T10:03:10;6.05;;;3.08;;
55222;SDS011;41090;48.632;12.428;2023-05-19T10:05:36;5.88;;;2.90;;
55222;SDS011;41090;48.632;12.428;2023-05-19T10:08:01;3.05;;;2.75;;
55222;SDS011;41090;48.632;12.428;2023-05-19T10:10:27;2.80;;;2.58;;
55222;SDS011;41090;48.632;12.428;2023-05-19T10:12:53;2.97;;;2.67;;
55222;SDS011;41090;48.632;12.428;2023-05-19T10:15:19;3.83;;;2.88;;
55222;SDS011;41090;48.632;12.428;2023-05-19T10:17:44;3.67;;;3.00;;
55222;SDS011;41090;48.632;12.428;2023-05-19T10:20:12;2.50;;;2.30;;
55222;SDS011;41090;48.632;12.428;2023-05-19T10:22:40;3.30;;;2.70;;
55222;SDS011;41090;48.632;12.428;2023-05-19T10:25:06;3.17;;;2.88;;
55222;SDS011;41090;48.632;12.428;2023-05-19T10:27:39;4.13;;;2.90;;
55222;SDS011;41090;48.632;12.428;2023-05-19T10:30:08;3.20;;;2.70;;
55222;SDS011;41090;48.632;12.428;2023-05-19T10:32:36;5.60;;;3.00;;
55222;SDS011;41090;48.632;12.428;2023-05-19T10:40:37;4.93;;;2.85;;
55222;SDS011;41090;48.632;12.428;2023-05-19T10:43:24;3.90;;;2.85;;
55222;SDS011;41090;48.632;12.428;2023-05-19T10:45:55;3.03;;;2.65;;
55222;SDS011;41090;48.632;12.428;2023-05-19T10:48:25;3.78;;;3.20;;
55222;SDS011;41090;48.632;12.428;2023-05-19T10:50:53;3.13;;;2.70;;
55222;SDS011;41090;48.632;12.428;2023-05-19T10:53:29;3.78;;;2.70;;
55222;SDS011;41090;48.632;12.428;2023-05-19T10:55:55;3.13;;;2.28;;
55222;SDS011;41090;48.632;12.428;2023-05-19T11:01:30;5.22;;;3.00;;
55222;SDS011;41090;48.632;12.428;2023-05-19T11:04:05;3.65;;;2.55;;
55222;SDS011;41090;48.632;12.428;2023-05-19T11:06:34;3.63;;;2.70;;
55222;SDS011;41090;48.632;12.428;2023-05-19T11:09:09;3.28;;;2.60;;
55222;SDS011;41090;48.632;12.428;2023-05-19T11:11:48;4.72;;;3.03;;
55222;SDS011;41090;48.632;12.428;2023-05-19T11:14:17;3.80;;;3.20;;
55222;SDS011;41090;48.632;12.428;2023-05-19T11:16:47;4.13;;;2.97;;
55222;SDS011;41090;48.632;12.428;2023-05-19T11:19:24;4.43;;;2.88;;
55222;SDS011;41090;48.632;12.428;2023-05-19T11:21:49;3.40;;;3.10;;
55222;SDS011;41090;48.632;12.428;2023-05-19T11:29:45;4.45;;;3.10;;
55222;SDS011;41090;48.632;12.428;2023-05-19T11:32:12;5.63;;;3.58;;
55222;SDS011;41090;48.632;12.428;2023-05-19T11:34:38;5.22;;;3.25;;
55222;SDS011;41090;48.632;12.428;2023-05-19T11:37:06;4.53;;;3.20;;
55222;SDS011;41090;48.632;12.428;2023-05-19T11:39:34;4.88;;;3.65;;
55222;SDS011;41090;48.632;12.428;2023-05-19T11:42:04;4.30;;;3.40;;
55222;SDS011;41090;48.632;12.428;2023-05-19T11:44:30;4.82;;;3.33;;
55222;SDS011;41090;48.632;12.428;2023-05-19T11:46:57;5.40;;;3.40;;
55222;SDS011;41090;48.632;12.428;2023-05-19T11:49:22;4.10;;;2.80;;
55222;SDS011;41090;48.632;12.428;2023-05-19T11:51:48;3.60;;;2.85;;
55222;SDS011;41090;48.632;12.428;2023-05-19T11:54:13;4.20;;;3.20;;
55222;SDS011;41090;48.632;12.428;2023-05-19T11:56:40;5.15;;;3.28;;
55222;SDS011;41090;48.632;12.428;2023-05-19T11:59:06;4.00;;;2.80;;
55222;SDS011;41090;48.632;12.428;2023-05-19T12:01:32;4.28;;;3.10;;
55222;SDS011;41090;48.632;12.428;2023-05-19T12:04:00;4.13;;;3.08;;
55222;SDS011;41090;48.632;12.428;2023-05-19T12:06:27;3.30;;;2.58;;
55222;SDS011;41090;48.632;12.428;2023-05-19T12:08:59;3.88;;;2.92;;
55222;SDS011;41090;48.632;12.428;2023-05-19T12:11:26;4.32;;;3.20;;
55222;SDS011;41090;48.632;12.428;2023-05-19T12:13:53;4.35;;;3.20;;
55222;SDS011;41090;48.632;12.428;2023-05-19T12:16:19;5.00;;;3.15;;
55222;SDS011;41090;48.632;12.428;2023-05-19T12:18:44;4.53;;;3.53;;
55222;SDS011;41090;48.632;12.428;2023-05-19T12:21:10;3.72;;;3.10;;
55222;SDS011;41090;48.632;12.428;2023-05-19T12:23:36;5.72;;;3.10;;
55222;SDS011;41090;48.632;12.428;2023-05-19T12:26:02;4.47;;;3.20;;
55222;SDS011;41090;48.632;12.428;2023-05-19T12:28:31;5.22;;;2.63;;
55222;SDS011;41090;48.632;12.428;2023-05-19T12:30:58;3.78;;;2.90;;
55222;SDS011;41090;48.632;12.428;2023-05-19T12:33:31;3.42;;;2.70;;
55222;SDS011;41090;48.632;12.428;2023-05-19T12:35:59;3.00;;;2.70;;
55222;SDS011;41090;48.632;12.428;2023-05-19T12:38:24;4.38;;;2.85;;
55222;SDS011;41090;48.632;12.428;2023-05-19T12:40:50;4.25;;;2.97;;
55222;SDS011;41090;48.632;12.428;2023-05-19T12:43:21;6.55;;;3.55;;
55222;SDS011;41090;48.632;12.428;2023-05-19T12:45:47;4.10;;;3.17;;
55222;SDS011;41090;48.632;12.428;2023-05-19T12:48:12;6.45;;;3.30;;
55222;SDS011;41090;48.632;12.428;2023-05-19T12:50:40;5.28;;;4.75;;
55222;SDS011;41090;48.632;12.428;2023-05-19T12:53:12;4.88;;;3.45;;
55222;SDS011;41090;48.632;12.428;2023-05-19T12:55:38;6.30;;;3.30;;
55222;SDS011;41090;48.632;12.428;2023-05-19T12:58:05;4.60;;;2.72;;
55222;SDS011;41090;48.632;12.428;2023-05-19T13:00:31;6.40;;;3.08;;
55222;SDS011;41090;48.632;12.428;2023-05-19T13:03:02;5.18;;;2.95;;
55222;SDS011;41090;48.632;12.428;2023-05-19T13:05:30;3.63;;;3.33;;
55222;SDS011;41090;48.632;12.428;2023-05-19T13:07:56;3.72;;;3.17;;
55222;SDS011;41090;48.632;12.428;2023-05-19T13:10:22;4.05;;;2.80;;
55222;SDS011;41090;48.632;12.428;2023-05-19T13:12:47;5.28;;;3.00;;
55222;SDS011;41090;48.632;12.428;2023-05-19T13:15:12;3.88;;;2.97;;
55222;SDS011;41090;48.632;12.428;2023-05-19T13:17:39;4.25;;;3.00;;
55222;SDS011;41090;48.632;12.428;2023-05-19T13:20:05;3.35;;;3.05;;
55222;SDS011;41090;48.632;12.428;2023-05-19T13:22:30;4.90;;;2.95;;
55222;SDS011;41090;48.632;12.428;2023-05-19T13:24:55;4.22;;;3.10;;
55222;SDS011;41090;48.632;12.428;2023-05-19T13:27:26;3.70;;;3.13;;
55222;SDS011;41090;48.632;12.428;2023-05-19T13:29:51;6.70;;;3.30;;
55222;SDS011;41090;48.632;12.428;2023-05-19T13:32:16;3.15;;;2.85;;
55222;SDS011;41090;48.632;12.428;2023-05-19T13:34:41;3.90;;;3.10;;
55222;SDS011;41090;48.632;12.428;2023-05-19T13:37:07;4.13;;;3.40;;
55222;SDS011;41090;48.632;12.428;2023-05-19T13:39:37;3.40;;;3.10;;
55222;SDS011;41090;48.632;12.428;2023-05-19T13:42:04;3.28;;;2.80;;
55222;SDS011;41090;48.632;12.428;2023-05-19T13:44:30;3.88;;;2.95;;
55222;SDS011;41090;48.632;12.428;2023-05-19T13:46:55;3.05;;;2.80;;
55222;SDS011;41090;48.632;12.428;2023-05-19T13:49:20;4.75;;;2.83;;
55222;SDS011;41090;48.632;12.428;2023-05-19T13:51:46;5.72;;;2.80;;
55222;SDS011;41090;48.632;12.428;2023-05-19T13:54:12;5.18;;;3.10;;
55222;SDS011;41090;48.632;12.428;2023-05-19T13:56:38;3.85;;;2.85;;
55222;SDS011;41090;48.632;12.428;2023-05-19T13:59:09;3.70;;;2.72;;
55222;SDS011;41090;48.632;12.428;2023-05-19T14:01:36;3.47;;;3.00;;
55222;SDS011;41090;48.632;12.428;2023-05-19T14:04:09;3.38;;;3.08;;
55222;SDS011;41090;48.632;12.428;2023-05-19T14:06:35;3.67;;;2.80;;
55222;SDS011;41090;48.632;12.428;2023-05-19T14:09:02;3.42;;;3.13;;
55222;SDS011;41090;48.632;12.428;2023-05-19T14:11:28;3.55;;;3.20;;
55222;SDS011;41090;48.632;12.428;2023-05-19T14:13:55;3.45;;;2.90;;
55222;SDS011;41090;48.632;12.428;2023-05-19T14:16:20;3.78;;;2.97;;
55222;SDS011;41090;48.632;12.428;2023-05-19T14:18:46;3.78;;;2.75;;
55222;SDS011;41090;48.632;12.428;2023-05-19T14:21:12;3.90;;;2.90;;
55222;SDS011;41090;48.632;12.428;2023-05-19T14:23:38;3.40;;;3.10;;
55222;SDS011;41090;48.632;12.428;2023-05-19T14:26:06;4.40;;;3.00;;
55222;SDS011;41090;48.632;12.428;2023-05-19T14:28:33;3.15;;;2.75;;
55222;SDS011;41090;48.632;12.428;2023-05-19T14:31:15;3.65;;;3.20;;
55222;SDS011;41090;48.632;12.428;2023-05-19T14:33:40;3.58;;;3.10;;
55222;SDS011;41090;48.632;12.428;2023-05-19T14:36:07;3.83;;;2.88;;
55222;SDS011;41090;48.632;12.428;2023-05-19T14:38:32;3.45;;;3.00;;
55222;SDS011;41090;48.632;12.428;2023-05-19T14:41:02;3.55;;;2.80;;
55222;SDS011;41090;48.632;12.428;2023-05-19T14:43:27;3.00;;;2.67;;
55222;SDS011;41090;48.632;12.428;2023-05-19T14:45:53;3.67;;;2.85;;
55222;SDS011;41090;48.632;12.428;2023-05-19T14:48:19;3.45;;;2.83;;
55222;SDS011;41090;48.632;12.428;2023-05-19T14:50:45;3.42;;;2.80;;
55222;SDS011;41090;48.632;12.428;2023-05-19T14:53:12;3.67;;;3.10;;
55222;SDS011;41090;48.632;12.428;2023-05-19T14:55:38;4.13;;;2.97;;
55222;SDS011;41090;48.632;12.428;2023-05-19T14:58:10;3.30;;;3.00;;
55222;SDS011;41090;48.632;12.428;2023-05-19T15:00:36;3.85;;;2.97;;
55222;SDS011;41090;48.632;12.428;2023-05-19T15:03:02;3.53;;;3.20;;
55222;SDS011;41090;48.632;12.428;2023-05-19T15:05:27;4.88;;;2.90;;
55222;SDS011;41090;48.632;12.428;2023-05-19T15:07:53;3.22;;;2.78;;
55222;SDS011;41090;48.632;12.428;2023-05-19T15:10:18;5.50;;;3.40;;
55222;SDS011;41090;48.632;12.428;2023-05-19T15:12:44;3.10;;;2.90;;
55222;SDS011;41090;48.632;12.428;2023-05-19T15:15:10;3.40;;;3.00;;
55222;SDS011;41090;48.632;12.428;2023-05-19T15:17:36;4.05;;;2.95;;